Benicia, California
Current Conditions -  °F | °C
As of 3:53 PM on Thursday 18 Dec 2014 (Local Time) from KCCR Reporting Station
Overcast Overcast  
Wind Chill: 56°   Ceiling: 1500
Heat Index: 56°   Visibility: 8mi
Dew Point: 50°   Wind: 7mph
Humidity: 80%   Direction: 360°N
Pressure: 30.14"   Gusts: NA
Location:  38.05°N, 122.15°W
Report Text: KCCR 182353Z 36006KT 8SM BKN015 OVC050 13/10 A3014 RMK AO2 SLP194 T01330100 10150 20122 56004
Loading
Personal Weather Stations






























Interactive Weather Map New forecast layout! Learn more

10-Day Weather Forecast

Advertisements
Track Severe Weather on mobile